createdAt,value
2023-02-02T00:02:33.555Z,65.86
2023-02-02T00:07:36.575Z,65.53
2023-02-02T00:12:39.895Z,66.07
2023-02-02T00:17:44.799Z,66.69
2023-02-02T00:22:48.142Z,65.69
2023-02-02T00:27:51.567Z,66.08
2023-02-02T00:32:56.511Z,65.71
2023-02-02T00:38:01.815Z,65.37
2023-02-02T00:43:05.273Z,65.81
2023-02-02T00:48:10.991Z,65.04
2023-02-02T00:53:14.433Z,65.09
2023-02-02T00:58:17.873Z,64.83
2023-02-02T01:03:22.784Z,64.31
2023-02-02T01:08:26.043Z,63.87
2023-02-02T01:13:29.513Z,64.20
2023-02-02T01:18:34.345Z,63.69
2023-02-02T01:23:39.497Z,63.01
2023-02-02T01:28:43.252Z,63.00
2023-02-02T01:33:49.339Z,62.71
2023-02-02T01:38:52.954Z,63.34
2023-02-02T01:43:59.393Z,63.19
2023-02-02T01:49:09.660Z,62.62
2023-02-02T01:54:17.255Z,63.39
2023-02-02T01:59:21.215Z,63.41
2023-02-02T02:04:28.497Z,63.48
2023-02-02T02:09:32.069Z,62.82
2023-02-02T02:14:53.027Z,63.33
2023-02-02T02:20:53.849Z,63.30
2023-02-02T02:26:37.039Z,63.40
2023-02-02T02:32:07.107Z,63.31
2023-02-02T02:37:15.396Z,63.31
2023-02-02T02:42:22.487Z,63.49
2023-02-02T02:47:27.376Z,63.50
2023-02-02T02:52:30.596Z,63.15
2023-02-02T02:58:02.674Z,63.00
2023-02-02T03:03:15.655Z,62.98
2023-02-02T03:08:26.170Z,62.73
2023-02-02T03:13:30.593Z,62.96
2023-02-02T03:18:36.358Z,63.06
2023-02-02T03:23:39.927Z,63.19
2023-02-02T03:28:43.653Z,62.42
2023-02-02T03:33:48.641Z,62.46
2023-02-02T03:38:51.787Z,61.93
2023-02-02T03:43:55.097Z,62.54
2023-02-02T03:48:59.952Z,62.53
2023-02-02T03:54:03.135Z,62.04
2023-02-02T03:59:06.835Z,62.75
2023-02-02T04:04:11.659Z,62.17
2023-02-02T04:09:14.989Z,62.77
2023-02-02T04:14:18.543Z,62.06
2023-02-02T04:19:23.259Z,62.13
2023-02-02T04:24:26.788Z,62.00
2023-02-02T04:29:30.406Z,61.87
2023-02-02T04:34:35.234Z,62.03
2023-02-02T04:39:38.408Z,61.65
2023-02-02T04:44:41.815Z,61.14
2023-02-02T04:49:46.797Z,61.58
2023-02-02T04:54:49.854Z,61.30
2023-02-02T04:59:53.392Z,61.36
2023-02-02T05:04:58.320Z,61.49
2023-02-02T05:10:01.483Z,61.21
2023-02-02T05:15:05.821Z,61.43
2023-02-02T05:20:12.112Z,61.08
2023-02-02T05:25:15.574Z,61.21
2023-02-02T05:30:19.732Z,61.23
2023-02-02T05:35:25.001Z,61.30
2023-02-02T05:40:28.734Z,60.91
2023-02-02T05:45:33.184Z,60.58
2023-02-02T05:50:38.009Z,60.73
2023-02-02T05:55:41.488Z,60.66
2023-02-02T06:00:44.939Z,60.72
2023-02-02T06:05:49.932Z,60.19
2023-02-02T06:10:53.032Z,60.18
2023-02-02T06:15:56.625Z,60.73
2023-02-02T06:21:02.264Z,60.50
2023-02-02T06:26:08.335Z,60.46
2023-02-02T06:31:13.538Z,60.06
2023-02-02T06:36:18.814Z,60.53
2023-02-02T06:41:22.847Z,59.69
2023-02-02T06:46:26.368Z,59.97
2023-02-02T06:51:31.337Z,59.66
2023-02-02T06:56:34.420Z,59.33
2023-02-02T07:01:37.953Z,59.50
2023-02-02T07:06:42.892Z,59.63
2023-02-02T07:11:45.955Z,59.31
2023-02-02T07:16:49.319Z,59.29
2023-02-02T07:21:54.173Z,59.39
2023-02-02T07:26:58.287Z,58.72
2023-02-02T07:32:01.763Z,59.06
2023-02-02T07:37:06.668Z,58.97
2023-02-02T07:42:11.761Z,58.13
2023-02-02T07:47:17.435Z,59.01
2023-02-02T07:52:22.276Z,59.09
2023-02-02T07:57:27.301Z,57.59
2023-02-02T08:02:30.766Z,58.31
2023-02-02T08:07:38.377Z,55.45
2023-02-02T08:12:41.817Z,55.52
2023-02-02T08:17:50.174Z,56.00
2023-02-02T08:22:55.063Z,55.64
2023-02-02T08:27:58.956Z,55.43
2023-02-02T08:33:02.283Z,55.79
2023-02-02T08:38:07.665Z,55.22
2023-02-02T08:43:11.248Z,55.11
2023-02-02T08:48:17.274Z,54.74
2023-02-02T08:53:22.743Z,54.60
2023-02-02T08:58:26.177Z,53.92
2023-02-02T09:03:29.660Z,53.39
2023-02-02T09:08:34.830Z,52.42
2023-02-02T09:13:39.741Z,51.19
2023-02-02T09:18:44.609Z,51.13
2023-02-02T09:23:50.006Z,48.89
2023-02-02T09:28:55.435Z,49.22
2023-02-02T09:34:02.647Z,48.42
2023-02-02T09:39:08.412Z,47.94
2023-02-02T09:44:24.375Z,47.56
2023-02-02T09:49:33.196Z,48.25
2023-02-02T09:54:44.936Z,47.25
2023-02-02T09:59:51.319Z,47.68
2023-02-02T10:04:57.933Z,48.83
2023-02-02T10:10:07.443Z,49.73
2023-02-02T10:15:20.813Z,50.60
2023-02-02T10:20:35.154Z,50.86
2023-02-02T10:25:46.425Z,50.92
2023-02-02T10:31:02.259Z,51.61
2023-02-02T10:36:17.664Z,50.65
2023-02-02T10:41:32.864Z,51.55
2023-02-02T10:46:42.018Z,52.06
2023-02-02T10:51:50.688Z,51.83
2023-02-02T10:57:00.582Z,51.76
2023-02-02T11:02:19.994Z,51.66
2023-02-02T11:07:24.171Z,52.61
2023-02-02T11:12:34.081Z,52.16
2023-02-02T11:17:38.452Z,51.88
2023-02-02T11:22:41.997Z,52.35
2023-02-02T11:27:47.357Z,52.21
2023-02-02T11:32:50.999Z,51.79
2023-02-02T11:38:09.580Z,51.33
2023-02-02T11:43:20.567Z,51.42
2023-02-02T11:48:28.312Z,51.63
2023-02-02T11:53:34.654Z,51.56
2023-02-02T11:58:49.989Z,52.03
2023-02-02T12:03:55.285Z,52.38
2023-02-02T12:09:01.535Z,52.54
2023-02-02T12:14:22.346Z,52.68
2023-02-02T12:19:46.156Z,52.57
2023-02-02T12:24:58.313Z,52.27
2023-02-02T12:30:19.156Z,52.68
2023-02-02T12:35:49.736Z,53.19
2023-02-02T12:41:11.778Z,53.13
2023-02-02T12:46:29.728Z,53.21
2023-02-02T12:51:48.121Z,54.36
2023-02-02T12:57:05.232Z,54.43
2023-02-02T13:02:23.808Z,55.73
2023-02-02T13:07:34.294Z,55.49
2023-02-02T13:12:44.414Z,55.39
2023-02-02T13:17:54.040Z,56.01
2023-02-02T13:23:00.707Z,56.96
2023-02-02T13:28:08.312Z,57.93
2023-02-02T13:33:20.084Z,57.48
2023-02-02T13:38:25.950Z,57.57
2023-02-02T13:43:41.506Z,58.63
2023-02-02T13:48:54.984Z,58.90
2023-02-02T13:54:21.761Z,58.96
2023-02-02T13:59:46.072Z,58.78
2023-02-02T14:04:57.872Z,59.82
2023-02-02T14:10:01.636Z,59.26
2023-02-02T14:15:07.343Z,59.56
2023-02-02T14:20:41.942Z,59.68
2023-02-02T14:26:06.722Z,59.76
2023-02-02T14:31:29.981Z,59.28
2023-02-02T14:36:38.873Z,58.82
2023-02-02T14:42:35.271Z,58.25
2023-02-02T14:47:48.279Z,58.79
2023-02-02T14:53:04.000Z,58.59
2023-02-02T14:58:08.054Z,57.67
2023-02-02T15:03:37.100Z,57.74
2023-02-02T15:08:41.947Z,57.18
2023-02-02T15:13:47.328Z,57.87
2023-02-02T15:19:00.772Z,57.98
2023-02-02T15:24:07.699Z,57.99
2023-02-02T15:29:18.554Z,57.85
2023-02-02T15:34:26.259Z,57.73
2023-02-02T15:39:34.064Z,57.46
2023-02-02T15:44:38.681Z,58.18
2023-02-02T15:49:42.564Z,57.75
2023-02-02T15:54:56.264Z,58.53
2023-02-02T16:00:00.986Z,58.30
2023-02-02T16:05:24.282Z,58.65
2023-02-02T16:10:29.457Z,58.34
2023-02-02T16:15:33.209Z,58.72
2023-02-02T16:20:39.674Z,58.86
2023-02-02T16:25:50.194Z,59.18
2023-02-02T16:30:54.417Z,58.93
2023-02-02T16:35:58.547Z,59.10
2023-02-02T16:41:11.541Z,58.82
2023-02-02T16:46:17.694Z,58.78
2023-02-02T16:51:28.287Z,58.77
2023-02-02T16:56:36.769Z,58.79
2023-02-02T17:01:42.993Z,58.76
2023-02-02T17:06:52.932Z,59.21
2023-02-02T17:12:02.569Z,59.24
2023-02-02T17:17:07.713Z,59.60
2023-02-02T17:22:12.344Z,59.70
2023-02-02T17:27:22.762Z,58.93
2023-02-02T17:32:27.046Z,59.52
2023-02-02T17:37:30.846Z,60.07
2023-02-02T17:42:36.066Z,60.45
2023-02-02T17:47:40.092Z,60.42
2023-02-02T17:52:43.602Z,60.49
2023-02-02T17:57:48.602Z,60.76
2023-02-02T18:02:56.800Z,60.59
2023-02-02T18:08:00.360Z,60.35
2023-02-02T18:13:05.388Z,60.83
2023-02-02T18:18:08.894Z,60.49
2023-02-02T18:23:12.944Z,61.01
2023-02-02T18:28:18.131Z,61.30
2023-02-02T18:33:23.498Z,61.36
2023-02-02T18:38:26.981Z,62.01
2023-02-02T18:43:32.060Z,62.50
2023-02-02T18:48:35.066Z,61.92
2023-02-02T18:53:38.397Z,61.56
2023-02-02T18:58:43.375Z,61.89
2023-02-02T19:03:50.153Z,62.28
2023-02-02T19:08:53.709Z,63.03
2023-02-02T19:13:58.770Z,63.19
2023-02-02T19:19:09.425Z,64.24
2023-02-02T19:24:13.829Z,64.22
2023-02-02T19:29:22.029Z,64.87
2023-02-02T19:34:25.615Z,63.97
2023-02-02T19:39:32.665Z,64.90
2023-02-02T19:44:39.189Z,64.34
2023-02-02T19:49:42.689Z,64.56
2023-02-02T19:55:19.694Z,64.75
2023-02-02T20:00:27.299Z,65.14
2023-02-02T20:05:35.507Z,64.40
2023-02-02T20:10:42.960Z,64.36
2023-02-02T20:15:48.703Z,64.28
2023-02-02T20:20:55.605Z,64.88
2023-02-02T20:25:59.608Z,64.75
2023-02-02T20:31:06.836Z,64.41
2023-02-02T20:36:38.053Z,64.91
2023-02-02T20:41:41.548Z,65.95
2023-02-02T20:46:46.461Z,65.40
2023-02-02T20:51:49.539Z,65.88
2023-02-02T20:56:54.578Z,65.44
2023-02-02T21:01:59.585Z,65.98
2023-02-02T21:07:03.098Z,65.31
2023-02-02T21:17:28.877Z,65.28
2023-02-02T21:22:32.251Z,64.93
2023-02-02T21:27:35.909Z,65.10
2023-02-02T21:32:40.965Z,64.87
2023-02-02T21:37:46.924Z,65.08
2023-02-02T21:42:51.114Z,64.54
2023-02-02T21:47:58.659Z,66.19
2023-02-02T21:53:19.001Z,64.82
2023-02-02T21:58:27.720Z,65.07
2023-02-02T22:03:35.568Z,64.96
2023-02-02T22:08:39.052Z,65.93
2023-02-02T22:13:42.573Z,65.11
2023-02-02T22:18:47.821Z,64.61
2023-02-02T22:23:51.309Z,64.80
2023-02-02T22:28:55.041Z,65.48
2023-02-02T22:33:59.896Z,65.72
2023-02-02T22:39:02.922Z,66.32
2023-02-02T22:44:06.836Z,65.67
2023-02-02T22:49:11.646Z,65.19
2023-02-02T22:54:14.969Z,66.02
2023-02-02T22:59:18.555Z,64.98
2023-02-02T23:04:23.448Z,65.05
2023-02-02T23:09:26.735Z,66.28
2023-02-02T23:14:30.042Z,65.86
2023-02-02T23:19:35.187Z,65.62
2023-02-02T23:24:38.629Z,65.81
2023-02-02T23:29:42.221Z,65.86
2023-02-02T23:34:48.249Z,66.05
2023-02-02T23:39:51.879Z,66.47
2023-02-02T23:44:55.177Z,66.39
2023-02-02T23:50:00.045Z,66.04
2023-02-02T23:55:03.502Z,64.92
